Time;durP1;ratioP1;P1;durP2;ratioP2;P2;SDS_P1;SDS_P2;PMS_P1;PMS_P2;Temp;Humidity;BMP_temperature;BMP_pressure;BME280_temperature;BME280_humidity;BME280_pressure;Samples;Min_cycle;Max_cycle;Signal;HPM_P1;HPM_P2
2022/05/14 00:01:14;;;;;;;12.68;4.15;;;12.50;99.90;;;;;;5000170;28;20042;-64
2022/05/14 00:03:39;;;;;;;15.52;4.15;;;12.60;99.90;;;;;;5000742;28;20093;-64
2022/05/14 00:06:12;;;;;;;16.35;3.60;;;12.30;99.90;;;;;;4999332;28;20038;-64
2022/05/14 00:08:38;;;;;;;15.05;4.10;;;;;;;;;;5015760;28;20041;-64
2022/05/14 00:13:49;;;;;;;21.55;5.20;;;12.70;99.90;;;;;;5017217;28;20061;-65
2022/05/14 00:16:15;;;;;;;19.80;5.75;;;12.60;99.90;;;;;;4999816;28;20050;-64
2022/05/14 00:18:41;;;;;;;14.07;4.00;;;;;;;;;;4999382;28;20050;-64
2022/05/14 00:21:08;;;;;;;11.00;4.60;;;;;;;;;;5016983;28;20049;-64
2022/05/14 00:23:34;;;;;;;12.57;4.00;;;12.80;99.90;;;;;;5016774;28;20096;-64
2022/05/14 00:25:59;;;;;;;19.52;5.75;;;12.50;99.90;;;;;;4999521;28;20050;-65
2022/05/14 00:28:25;;;;;;;13.30;4.35;;;12.40;99.90;;;;;;4998977;28;20097;-64
2022/05/14 00:30:51;;;;;;;13.95;4.22;;;;;;;;;;5015668;28;20045;-64
2022/05/14 00:33:17;;;;;;;13.00;4.25;;;12.50;99.90;;;;;;4999553;28;20128;-64
2022/05/14 00:35:43;;;;;;;16.33;4.30;;;12.40;99.90;;;;;;5016661;28;20077;-64
2022/05/14 00:38:09;;;;;;;13.05;3.60;;;12.50;99.90;;;;;;5015415;28;20035;-64
2022/05/14 00:40:38;;;;;;;13.32;4.75;;;12.40;99.90;;;;;;5017596;28;20034;-64
2022/05/14 00:43:05;;;;;;;16.98;4.28;;;12.30;99.90;;;;;;5016530;28;20121;-64
2022/05/14 00:45:35;;;;;;;14.55;4.53;;;12.40;99.90;;;;;;5015627;28;20045;-64
2022/05/14 00:48:02;;;;;;;16.83;4.63;;;12.30;99.90;;;;;;5016784;28;20100;-64
2022/05/14 00:50:34;;;;;;;19.48;5.65;;;12.60;99.90;;;;;;4999669;28;20108;-65
2022/05/14 00:53:10;;;;;;;20.83;5.30;;;12.30;99.90;;;;;;4992960;28;20555;-64
2022/05/14 00:55:37;;;;;;;15.13;4.65;;;12.40;99.90;;;;;;4998717;28;20048;-64
2022/05/14 00:58:04;;;;;;;17.90;5.80;;;12.40;99.90;;;;;;5016687;28;20558;-64
2022/05/14 01:00:31;;;;;;;16.48;5.53;;;12.30;99.90;;;;;;4997671;28;20041;-64
2022/05/14 01:02:57;;;;;;;15.52;5.72;;;12.20;99.90;;;;;;5015842;28;20041;-64
2022/05/14 01:05:23;;;;;;;20.80;5.93;;;12.30;99.90;;;;;;5016181;28;20145;-64
2022/05/14 01:07:51;;;;;;;24.75;6.43;;;12.30;99.90;;;;;;4999481;28;20088;-64
2022/05/14 01:10:18;;;;;;;27.45;7.82;;;12.50;99.90;;;;;;4998523;28;20077;-64
2022/05/14 01:12:50;;;;;;;20.40;5.75;;;12.30;99.90;;;;;;4998054;28;20049;-64
2022/05/14 01:15:21;;;;;;;25.15;6.40;;;12.40;99.90;;;;;;4998612;28;20423;-64
2022/05/14 01:17:47;;;;;;;18.33;6.63;;;;;;;;;;5015596;28;20468;-64
2022/05/14 01:20:14;;;;;;;21.40;6.20;;;12.40;99.90;;;;;;5016112;28;20045;-64
2022/05/14 01:22:48;;;;;;;24.45;7.20;;;12.30;99.90;;;;;;5017052;28;20045;-64
2022/05/14 01:28:14;;;;;;;29.35;6.82;;;12.20;99.90;;;;;;5015466;28;20077;-64
2022/05/14 01:30:52;;;;;;;20.48;6.25;;;12.20;99.90;;;;;;5016150;28;20069;-64
2022/05/14 01:33:18;;;;;;;18.83;6.40;;;12.30;99.90;;;;;;4998594;28;20041;-64
2022/05/14 01:35:44;;;;;;;23.85;7.15;;;12.30;99.90;;;;;;5016352;28;20042;-64
2022/05/14 01:38:10;;;;;;;28.10;8.35;;;12.30;99.90;;;;;;5016213;28;20385;-64
2022/05/14 01:40:36;;;;;;;27.98;7.68;;;12.20;99.90;;;;;;4981324;28;20046;-64
2022/05/14 01:43:03;;;;;;;21.27;6.93;;;12.30;99.90;;;;;;5016218;28;20049;-64
2022/05/14 01:45:30;;;;;;;24.55;7.45;;;12.30;99.90;;;;;;5015824;28;20052;-64
2022/05/14 01:47:56;;;;;;;24.90;6.93;;;;;;;;;;4997566;28;20050;-64
2022/05/14 01:50:22;;;;;;;23.63;6.55;;;12.20;99.90;;;;;;4998517;28;20057;-64
2022/05/14 01:52:47;;;;;;;23.08;7.03;;;12.30;99.90;;;;;;5015267;28;20048;-64
2022/05/14 01:55:13;;;;;;;27.48;8.05;;;12.10;99.90;;;;;;5016143;28;20102;-64
2022/05/14 01:57:38;;;;;;;28.38;9.05;;;12.30;99.90;;;;;;5015473;28;20042;-64
2022/05/14 02:00:09;;;;;;;24.45;6.80;;;12.10;99.90;;;;;;4981825;28;20042;-64
2022/05/14 02:02:35;;;;;;;29.42;7.40;;;12.20;99.90;;;;;;4997253;28;20053;-64
2022/05/14 02:05:00;;;;;;;26.17;7.70;;;12.20;99.90;;;;;;5015606;28;20038;-64
2022/05/14 02:07:27;;;;;;;30.27;8.45;;;;;;;;;;5014402;28;20045;-64
2022/05/14 02:09:53;;;;;;;32.63;7.63;;;12.10;99.90;;;;;;5015858;28;20042;-64
2022/05/14 02:12:18;;;;;;;22.58;7.18;;;12.10;99.90;;;;;;5015340;28;20558;-64
2022/05/14 02:14:45;;;;;;;27.65;8.02;;;12.10;99.90;;;;;;5019328;28;20081;-64
2022/05/14 02:17:11;;;;;;;26.27;7.93;;;11.90;99.90;;;;;;5002093;28;20048;-64
2022/05/14 02:19:37;;;;;;;22.60;6.90;;;11.90;99.90;;;;;;5002170;28;20400;-64
2022/05/14 02:22:05;;;;;;;23.55;6.88;;;11.90;99.90;;;;;;5020344;28;20042;-64
2022/05/14 02:24:35;;;;;;;20.95;7.03;;;11.90;99.90;;;;;;5019411;28;20407;-64
2022/05/14 02:27:01;;;;;;;23.15;7.10;;;12.10;99.90;;;;;;5016889;28;20046;-64
2022/05/14 02:29:27;;;;;;;24.80;6.70;;;11.80;99.90;;;;;;5018831;28;20049;-64
2022/05/14 02:31:52;;;;;;;24.70;7.43;;;11.80;99.90;;;;;;5001364;28;20049;-64
2022/05/14 02:34:18;;;;;;;29.48;8.55;;;11.70;99.90;;;;;;4984920;28;20488;-64
2022/05/14 02:36:44;;;;;;;34.97;8.38;;;;;;;;;;5018491;28;20042;-64
2022/05/14 02:39:10;;;;;;;23.35;6.90;;;;;;;;;;5001059;28;20093;-64
2022/05/14 02:41:37;;;;;;;28.17;7.25;;;11.70;99.90;;;;;;5018860;28;20111;-64
2022/05/14 02:44:02;;;;;;;22.10;7.45;;;11.60;99.90;;;;;;5019430;28;20040;-64
2022/05/14 02:46:28;;;;;;;20.83;6.63;;;11.50;99.90;;;;;;5017950;28;20042;-64
2022/05/14 02:48:54;;;;;;;20.35;7.55;;;11.70;99.90;;;;;;5019421;28;20045;-64
2022/05/14 02:51:20;;;;;;;22.30;7.22;;;11.50;99.90;;;;;;5001192;28;20053;-64
2022/05/14 02:53:46;;;;;;;26.45;7.10;;;11.40;99.90;;;;;;5018174;28;20050;-64
2022/05/14 02:56:12;;;;;;;29.50;8.35;;;;;;;;;;5017106;28;20040;-64
2022/05/14 03:01:21;;;;;;;27.05;7.53;;;11.40;99.90;;;;;;5000795;28;20539;-64
2022/05/14 03:03:47;;;;;;;25.42;8.10;;;11.60;99.90;;;;;;5017919;28;20042;-64
2022/05/14 03:06:13;;;;;;;26.35;7.60;;;11.50;99.90;;;;;;5000465;28;20045;-63
2022/05/14 03:08:38;;;;;;;30.75;8.40;;;11.50;99.90;;;;;;5001584;28;20042;-64
2022/05/14 03:11:04;;;;;;;27.73;8.40;;;11.50;99.90;;;;;;5018861;28;20487;-64
2022/05/14 03:13:30;;;;;;;28.08;7.10;;;11.50;99.90;;;;;;5017957;28;20124;-63
2022/05/14 03:15:56;;;;;;;19.00;7.50;;;11.50;99.90;;;;;;5016729;28;20054;-64
2022/05/14 03:18:22;;;;;;;26.00;7.75;;;;;;;;;;5001371;28;20056;-63
2022/05/14 03:20:48;;;;;;;37.63;8.70;;;11.40;99.90;;;;;;5017417;28;20514;-64
2022/05/14 03:23:15;;;;;;;27.70;8.95;;;11.30;99.90;;;;;;4999346;28;20030;-64
2022/05/14 03:25:41;;;;;;;31.38;7.88;;;;;;;;;;4999543;28;20049;-64
2022/05/14 03:28:06;;;;;;;21.33;7.40;;;11.50;99.90;;;;;;5000657;28;20385;-64
2022/05/14 03:30:32;;;;;;;29.27;7.75;;;11.40;99.90;;;;;;5016752;28;20042;-64
2022/05/14 03:32:58;;;;;;;26.15;7.30;;;;;;;;;;5016715;28;20041;-64
2022/05/14 03:35:24;;;;;;;26.50;8.13;;;11.40;99.90;;;;;;5000131;28;20451;-64
2022/05/14 03:37:49;;;;;;;24.17;7.25;;;11.20;99.90;;;;;;5017763;28;20129;-64
2022/05/14 03:40:15;;;;;;;19.67;7.07;;;11.00;99.90;;;;;;5018623;28;20133;-64
2022/05/14 03:42:42;;;;;;;18.80;6.75;;;11.00;99.90;;;;;;5018484;28;20065;-64
2022/05/14 03:45:08;;;;;;;26.25;7.47;;;;;;;;;;4999840;28;20507;-64
2022/05/14 03:47:34;;;;;;;29.38;7.47;;;11.00;99.90;;;;;;5017381;28;20116;-64
2022/05/14 03:50:00;;;;;;;25.10;7.78;;;11.10;99.90;;;;;;5016531;28;20094;-64
2022/05/14 03:52:25;;;;;;;20.58;8.00;;;11.00;99.90;;;;;;5019000;28;20045;-64
2022/05/14 03:54:51;;;;;;;32.63;7.47;;;11.00;99.90;;;;;;5015747;28;20034;-64
2022/05/14 03:57:17;;;;;;;20.88;7.43;;;11.00;99.90;;;;;;5015345;28;20068;-64
2022/05/14 03:59:42;;;;;;;33.58;9.23;;;11.00;99.90;;;;;;5011935;28;20068;-64
2022/05/14 04:02:08;;;;;;;26.30;7.72;;;;;;;;;;5017208;28;20057;-64
2022/05/14 04:04:34;;;;;;;22.52;7.68;;;10.90;99.90;;;;;;5016177;28;20385;-63
2022/05/14 04:07:01;;;;;;;18.75;7.10;;;10.90;99.90;;;;;;5017198;28;20048;-64
2022/05/14 04:09:27;;;;;;;28.73;7.30;;;11.00;99.90;;;;;;5017040;28;20077;-63
2022/05/14 04:11:54;;;;;;;21.67;8.80;;;10.90;99.90;;;;;;5001301;28;20050;-64
2022/05/14 04:14:20;;;;;;;27.52;6.97;;;11.00;99.90;;;;;;5017409;28;20141;-64
2022/05/14 04:16:46;;;;;;;26.63;9.45;;;11.00;99.90;;;;;;5017688;28;20137;-64
2022/05/14 04:19:11;;;;;;;21.77;7.10;;;10.90;99.90;;;;;;5000119;28;20070;-64
2022/05/14 04:21:38;;;;;;;26.63;8.00;;;;;;;;;;5015971;28;20125;-64
2022/05/14 04:24:05;;;;;;;27.10;9.75;;;11.20;99.90;;;;;;5015723;28;20523;-64
2022/05/14 04:26:30;;;;;;;24.10;8.30;;;10.90;99.90;;;;;;4999244;28;20049;-64
2022/05/14 04:28:56;;;;;;;26.13;9.20;;;11.30;99.90;;;;;;5015242;28;20045;-64
2022/05/14 04:31:22;;;;;;;26.98;8.38;;;11.10;99.90;;;;;;4996514;28;20160;-64
2022/05/14 04:33:48;;;;;;;30.88;8.38;;;11.00;99.90;;;;;;4984946;28;20078;-64
2022/05/14 04:36:14;;;;;;;31.23;9.10;;;11.10;99.90;;;;;;4994326;28;20551;-64
2022/05/14 04:38:40;;;;;;;25.02;7.72;;;11.30;99.90;;;;;;4993511;28;20523;-64
2022/05/14 04:41:06;;;;;;;22.83;8.93;;;11.40;99.90;;;;;;4994592;28;20080;-64
2022/05/14 04:43:33;;;;;;;34.38;8.45;;;;;;;;;;4994767;28;20189;-64
2022/05/14 04:45:59;;;;;;;22.02;7.47;;;11.30;99.90;;;;;;5003007;28;20045;-64
2022/05/14 04:48:24;;;;;;;36.47;8.75;;;11.30;99.90;;;;;;5013968;28;20045;-64
2022/05/14 04:50:50;;;;;;;30.20;9.50;;;11.60;99.90;;;;;;5013845;28;20037;-64
2022/05/14 04:53:16;;;;;;;29.13;9.75;;;11.50;99.90;;;;;;5013913;28;20169;-64
2022/05/14 04:55:42;;;;;;;29.73;8.00;;;11.60;99.90;;;;;;5013904;28;20033;-64
2022/05/14 04:58:08;;;;;;;25.80;8.23;;;11.70;99.90;;;;;;5013935;28;20073;-64
2022/05/14 05:00:35;;;;;;;29.90;8.98;;;11.80;99.90;;;;;;5012668;28;20034;-64
2022/05/14 05:06:03;;;;;;;27.25;9.05;;;11.90;99.90;;;;;;5013852;28;20049;-64
2022/05/14 05:08:31;;;;;;;24.98;8.32;;;12.00;99.90;;;;;;4991613;28;20053;-64
2022/05/14 05:10:57;;;;;;;24.58;8.60;;;12.30;99.90;;;;;;4976783;28;20046;-64
2022/05/14 05:13:27;;;;;;;22.40;8.00;;;12.20;99.90;;;;;;4976167;28;20133;-64
2022/05/14 05:15:52;;;;;;;37.00;9.38;;;12.60;99.90;;;;;;4993817;28;20090;-64
2022/05/14 05:18:19;;;;;;;26.65;7.43;;;13.50;99.90;;;;;;4976502;28;20081;-64
2022/05/14 05:20:48;;;;;;;25.38;8.57;;;13.60;99.90;;;;;;4994083;28;20073;-64
2022/05/14 05:23:17;;;;;;;23.60;8.18;;;13.90;99.90;;;;;;4993884;28;20046;-64
2022/05/14 05:25:43;;;;;;;23.85;7.25;;;14.70;99.90;;;;;;4993846;28;20559;-64
2022/05/14 05:28:08;;;;;;;31.55;7.38;;;14.50;99.90;;;;;;4976815;28;20476;-64
2022/05/14 05:30:34;;;;;;;29.13;7.78;;;14.70;99.90;;;;;;4975984;28;20078;-65
2022/05/14 05:33:00;;;;;;;26.58;8.13;;;14.50;99.90;;;;;;4976311;28;20473;-65
2022/05/14 05:35:26;;;;;;;21.77;6.68;;;14.20;99.90;;;;;;4993746;28;20125;-65
2022/05/14 05:37:51;;;;;;;29.67;8.02;;;15.20;99.90;;;;;;4976119;28;20081;-65
2022/05/14 05:40:17;;;;;;;30.73;8.93;;;13.90;99.90;;;;;;4993575;28;20449;-65
2022/05/14 05:42:44;;;;;;;29.20;7.97;;;13.90;99.90;;;;;;4993822;28;20061;-65
2022/05/14 05:45:12;;;;;;;20.40;6.65;;;13.90;99.90;;;;;;4978171;28;20117;-65
2022/05/14 05:47:38;;;;;;;28.30;7.82;;;13.80;99.90;;;;;;5014785;28;20089;-65
2022/05/14 05:50:04;;;;;;;20.02;6.85;;;13.70;99.90;;;;;;5017330;28;20045;-66
2022/05/14 05:52:32;;;;;;;23.63;7.28;;;14.00;99.90;;;;;;5017351;28;20053;-66
2022/05/14 05:57:42;;;;;;;28.07;7.83;;;14.60;99.90;;;;;;5003773;28;20042;-65
2022/05/14 06:00:12;;;;;;;23.35;7.18;;;14.50;99.90;;;;;;5009566;28;20216;-68
2022/05/14 06:02:38;;;;;;;23.13;6.80;;;15.10;99.90;;;;;;4973334;28;20468;-64
2022/05/14 06:05:05;;;;;;;24.35;7.30;;;14.90;99.90;;;;;;4988353;28;20128;-66
2022/05/14 06:07:32;;;;;;;22.75;7.30;;;15.40;99.90;;;;;;4988479;28;20050;-66
2022/05/14 06:09:57;;;;;;;26.88;7.22;;;15.70;99.90;;;;;;4971582;28;20412;-67
2022/05/14 06:12:23;;;;;;;24.83;6.22;;;16.00;99.90;;;;;;4983035;28;20057;-68
2022/05/14 06:14:49;;;;;;;28.88;7.60;;;16.20;99.90;;;;;;4972190;28;20153;-67
2022/05/14 06:17:15;;;;;;;23.23;6.47;;;16.50;99.90;;;;;;4987594;28;20042;-66
2022/05/14 06:19:42;;;;;;;22.70;6.07;;;16.70;99.90;;;;;;4969899;28;20057;-67
2022/05/14 06:22:07;;;;;;;21.83;5.65;;;16.80;99.90;;;;;;4989812;28;20076;-66
2022/05/14 06:24:35;;;;;;;22.90;6.13;;;17.00;99.90;;;;;;4999598;28;20280;-65
2022/05/14 06:27:00;;;;;;;23.00;6.03;;;17.00;99.90;;;;;;4986660;28;20062;-66
2022/05/14 06:29:26;;;;;;;30.55;7.38;;;17.30;99.90;;;;;;4987405;28;20042;-66
2022/05/14 06:31:52;;;;;;;27.08;5.90;;;16.90;99.90;;;;;;4986722;28;20038;-65
2022/05/14 06:34:17;;;;;;;19.35;6.88;;;16.70;99.90;;;;;;4999398;28;20462;-64
2022/05/14 06:36:43;;;;;;;22.23;7.03;;;16.70;99.90;;;;;;5006527;28;20412;-64
2022/05/14 06:39:08;;;;;;;23.55;5.68;;;16.00;99.90;;;;;;4992244;28;20051;-64
2022/05/14 06:41:34;;;;;;;22.20;6.20;;;18.10;99.90;;;;;;5001870;28;20037;-64
2022/05/14 06:44:00;;;;;;;25.88;5.90;;;16.60;99.90;;;;;;4998133;28;20172;-65
2022/05/14 06:46:25;;;;;;;19.50;5.07;;;17.20;99.90;;;;;;4985225;28;20038;-65
2022/05/14 06:48:51;;;;;;;21.45;5.18;;;17.50;99.90;;;;;;4993686;28;20063;-65
2022/05/14 06:51:21;;;;;;;23.70;5.15;;;17.80;99.90;;;;;;4992163;28;20558;-65
2022/05/14 06:53:48;;;;;;;16.70;5.10;;;17.60;99.90;;;;;;4999292;28;20120;-65
2022/05/14 06:56:17;;;;;;;25.23;5.28;;;17.60;99.90;;;;;;4999666;28;20407;-65
2022/05/14 06:58:45;;;;;;;19.70;4.93;;;17.70;99.90;;;;;;5003860;28;20397;-66
2022/05/14 07:01:10;;;;;;;17.88;5.07;;;17.60;99.90;;;;;;5003030;28;20158;-64
2022/05/14 07:06:38;;;;;;;25.63;5.68;;;17.20;99.90;;;;;;4980820;28;20057;-65
2022/05/14 07:09:06;;;;;;;20.45;5.25;;;17.20;99.90;;;;;;4985318;28;20092;-66
2022/05/14 07:11:34;;;;;;;23.35;5.63;;;17.00;99.90;;;;;;4990492;28;20052;-66
2022/05/14 07:14:01;;;;;;;17.63;4.47;;;17.00;99.90;;;;;;4972292;28;1022046;-66
2022/05/14 07:16:26;;;;;;;25.48;6.15;;;16.80;99.90;;;;;;4989126;28;20514;-66
2022/05/14 07:18:52;;;;;;;22.95;4.78;;;16.90;99.90;;;;;;4996469;28;20034;-67
2022/05/14 07:21:18;;;;;;;19.98;4.82;;;16.80;99.90;;;;;;4970497;28;20069;-65
2022/05/14 07:23:43;;;;;;;20.98;4.70;;;16.90;99.90;;;;;;4991923;28;20043;-65
2022/05/14 07:26:10;;;;;;;21.88;4.53;;;16.90;99.90;;;;;;4989912;28;20050;-66
2022/05/14 07:28:36;;;;;;;18.63;4.30;;;16.90;99.90;;;;;;4988964;28;20042;-64
2022/05/14 07:31:03;;;;;;;24.90;5.25;;;17.10;99.90;;;;;;4973363;28;20129;-65
2022/05/14 07:33:29;;;;;;;20.02;4.03;;;17.10;99.90;;;;;;4978565;28;20163;-65
2022/05/14 07:36:00;;;;;;;20.90;4.53;;;16.90;99.90;;;;;;4985040;28;20038;-65
2022/05/14 07:38:26;;;;;;;20.13;4.20;;;17.10;99.90;;;;;;5008684;28;20038;-67
2022/05/14 07:40:52;;;;;;;18.40;5.07;;;17.10;99.90;;;;;;4988115;28;20077;-64
2022/05/14 07:43:22;;;;;;;27.52;5.35;;;17.10;99.90;;;;;;4977274;28;20042;-66
2022/05/14 07:45:53;;;;;;;16.48;4.38;;;17.00;99.90;;;;;;4991453;28;20038;-64
2022/05/14 07:48:27;;;;;;;18.35;4.60;;;17.10;99.90;;;;;;5008909;28;20042;-65
2022/05/14 07:50:53;;;;;;;21.50;4.97;;;17.00;99.90;;;;;;4971930;28;20038;-65
2022/05/14 07:53:20;;;;;;;15.52;3.72;;;17.10;99.90;;;;;;5012031;28;20507;-66
2022/05/14 07:55:47;;;;;;;20.90;5.13;;;16.90;99.90;;;;;;4981437;28;20046;-66
2022/05/14 07:58:13;;;;;;;19.13;5.03;;;16.90;99.90;;;;;;4979187;28;20073;-65
2022/05/14 08:00:39;;;;;;;18.88;4.45;;;17.10;99.90;;;;;;4987812;28;20448;-65
2022/05/14 08:03:06;;;;;;;22.13;5.05;;;17.10;99.90;;;;;;4993267;28;20456;-65
2022/05/14 08:05:32;;;;;;;22.55;5.25;;;17.00;99.90;;;;;;5012520;28;20065;-66
2022/05/14 08:07:57;;;;;;;20.27;5.18;;;17.50;99.90;;;;;;4999938;28;20046;-66
2022/05/14 08:10:23;;;;;;;19.80;4.28;;;17.40;99.90;;;;;;4996964;28;20137;-66
2022/05/14 08:12:53;;;;;;;20.45;5.35;;;17.20;99.90;;;;;;4995490;28;20060;-66
2022/05/14 08:15:21;;;;;;;23.23;5.22;;;17.30;99.90;;;;;;4995271;28;20049;-65
2022/05/14 08:17:47;;;;;;;17.23;4.20;;;17.20;99.90;;;;;;4997313;28;20124;-65
2022/05/14 08:20:14;;;;;;;23.30;4.43;;;17.10;99.90;;;;;;5011521;28;20080;-66
2022/05/14 08:25:25;;;;;;;20.10;3.97;;;17.60;99.90;;;;;;4992490;28;20513;-67
2022/05/14 08:27:51;;;;;;;23.13;4.75;;;17.40;99.90;;;;;;5011342;28;20060;-66
2022/05/14 08:30:21;;;;;;;24.65;5.20;;;17.30;99.90;;;;;;4995247;28;20045;-65
2022/05/14 08:32:47;;;;;;;21.33;4.95;;;17.50;99.90;;;;;;5000906;28;20069;-64
2022/05/14 08:35:13;;;;;;;23.50;5.25;;;17.40;99.90;;;;;;4994604;28;20488;-66
2022/05/14 08:37:39;;;;;;;19.90;4.90;;;17.50;99.90;;;;;;5009683;28;20056;-70
2022/05/14 08:40:06;;;;;;;27.08;4.75;;;17.40;99.90;;;;;;4977624;28;20067;-64
2022/05/14 08:42:33;;;;;;;30.33;6.13;;;17.30;99.90;;;;;;5009638;28;20120;-66
2022/05/14 08:44:59;;;;;;;17.45;4.65;;;17.20;99.90;;;;;;4997806;28;20044;-65
2022/05/14 08:47:30;;;;;;;21.75;4.75;;;17.10;99.90;;;;;;4999739;28;20034;-65
2022/05/14 08:49:57;;;;;;;19.70;4.40;;;17.20;99.90;;;;;;4991376;28;20038;-65
2022/05/14 08:52:25;;;;;;;20.27;4.68;;;17.40;99.90;;;;;;4975413;28;20034;-64
2022/05/14 08:54:58;;;;;;;20.20;4.35;;;17.30;99.90;;;;;;4997578;28;20111;-67
2022/05/14 08:57:50;;;;;;;22.98;5.55;;;17.50;99.90;;;;;;4962266;28;20073;-67
2022/05/14 09:00:17;;;;;;;23.02;4.15;;;17.50;99.90;;;;;;4983997;28;20153;-66
2022/05/14 09:02:47;;;;;;;25.75;5.22;;;17.40;99.90;;;;;;5008125;28;20040;-67
2022/05/14 09:05:23;;;;;;;18.58;3.60;;;17.70;99.90;;;;;;4989178;28;20128;-65
2022/05/14 09:07:52;;;;;;;17.90;3.55;;;17.80;99.90;;;;;;4999768;28;20116;-65
2022/05/14 09:10:32;;;;;;;21.25;4.63;;;18.00;99.90;;;;;;5005954;28;20038;-65
2022/05/14 09:13:13;;;;;;;19.92;4.03;;;18.10;99.90;;;;;;4996708;28;20038;-64
2022/05/14 09:15:58;;;;;;;24.23;5.10;;;17.80;99.90;;;;;;4987958;28;20046;-64
2022/05/14 09:18:28;;;;;;;20.60;4.32;;;17.90;99.90;;;;;;4988496;28;20303;-65
2022/05/14 09:21:01;;;;;;;20.95;4.95;;;18.10;99.90;;;;;;4996385;28;20404;-68
2022/05/14 09:23:43;;;;;;;26.20;4.32;;;18.10;99.90;;;;;;4965235;28;20042;-65
2022/05/14 09:26:26;;;;;;;25.42;5.38;;;18.00;99.90;;;;;;4975137;28;20076;-64
2022/05/14 09:28:55;;;;;;;25.40;4.75;;;17.90;99.90;;;;;;4998805;28;20120;-64
2022/05/14 09:31:36;;;;;;;18.30;4.43;;;18.10;99.90;;;;;;5000662;28;20038;-65
2022/05/14 09:34:12;;;;;;;21.35;5.00;;;18.10;99.90;;;;;;5009712;28;20412;-64
2022/05/14 09:36:38;;;;;;;18.65;3.80;;;18.10;99.90;;;;;;5009849;28;20038;-66
2022/05/14 09:39:10;;;;;;;24.27;3.60;;;17.80;99.90;;;;;;5021555;28;20046;-65
2022/05/14 09:41:46;;;;;;;15.63;4.43;;;17.80;99.90;;;;;;5010760;28;20042;-65
2022/05/14 09:44:26;;;;;;;24.73;5.13;;;17.90;99.90;;;;;;5007100;28;20047;-64
2022/05/14 09:47:04;;;;;;;21.63;4.10;;;17.50;99.90;;;;;;4993171;28;20444;-65
2022/05/14 09:49:29;;;;;;;21.55;4.60;;;17.60;99.90;;;;;;4997482;28;20156;-65
2022/05/14 09:52:04;;;;;;;21.92;4.70;;;18.00;99.90;;;;;;5011476;28;20117;-65
2022/05/14 09:54:43;;;;;;;20.20;4.40;;;18.00;99.90;;;;;;5007944;28;20121;-65
2022/05/14 09:57:12;;;;;;;26.17;4.85;;;18.30;99.90;;;;;;4991799;28;20069;-65
2022/05/14 10:00:29;;;;;;;22.92;5.20;;;18.30;99.90;;;;;;4980433;28;20038;-65
2022/05/14 10:03:06;;;;;;;17.85;4.05;;;18.60;99.90;;;;;;4954262;28;20046;-66
2022/05/14 10:05:40;;;;;;;18.42;4.25;;;18.50;99.90;;;;;;5006748;28;20044;-67
2022/05/14 10:08:21;;;;;;;19.83;4.80;;;18.50;99.90;;;;;;5008793;28;20049;-65
2022/05/14 10:11:06;;;;;;;20.88;5.80;;;18.50;99.90;;;;;;5008080;28;20136;-65
2022/05/14 10:13:58;;;;;;;17.10;3.92;;;18.80;99.90;;;;;;5007378;28;20070;-65
2022/05/14 10:16:44;;;;;;;23.10;4.18;;;18.10;99.90;;;;;;4989519;28;20038;-65
2022/05/14 10:19:48;;;;;;;23.52;4.10;;;18.90;99.90;;;;;;5009759;28;20067;-65
2022/05/14 10:22:23;;;;;;;19.08;4.57;;;18.80;99.90;;;;;;4991982;28;20096;-65
2022/05/14 10:28:03;;;;;;;18.42;3.97;;;19.10;99.90;;;;;;5007170;28;20488;-65
2022/05/14 10:31:04;;;;;;;24.55;4.57;;;19.10;99.90;;;;;;5009283;28;20408;-65
2022/05/14 10:33:30;;;;;;;21.80;4.15;;;19.50;99.90;;;;;;5008572;28;20476;-65
2022/05/14 10:36:20;;;;;;;18.92;3.80;;;19.20;99.90;;;;;;5011802;28;20042;-66
2022/05/14 10:38:50;;;;;;;19.05;4.68;;;19.30;99.90;;;;;;5011867;28;20462;-65
2022/05/14 10:41:31;;;;;;;18.95;4.40;;;19.00;99.90;;;;;;4997143;28;20050;-67
2022/05/14 10:43:59;;;;;;;26.33;4.97;;;19.00;99.90;;;;;;5014573;28;20447;-66
2022/05/14 10:46:27;;;;;;;22.15;4.13;;;19.10;99.90;;;;;;4995697;28;20046;-65
2022/05/14 10:49:07;;;;;;;21.85;4.28;;;19.10;99.90;;;;;;4995475;28;20108;-66
2022/05/14 10:51:37;;;;;;;20.63;4.05;;;18.90;99.90;;;;;;5013359;28;20052;-65
2022/05/14 10:54:03;;;;;;;16.08;4.90;;;19.20;99.90;;;;;;4997241;28;20037;-65
2022/05/14 10:56:33;;;;;;;20.27;3.72;;;19.00;99.90;;;;;;5014634;28;20372;-64
2022/05/14 10:58:59;;;;;;;20.95;3.83;;;18.90;99.90;;;;;;4990614;28;20050;-65
2022/05/14 11:01:43;;;;;;;20.10;4.10;;;19.10;99.90;;;;;;4990037;28;20053;-65
2022/05/14 11:04:22;;;;;;;18.70;4.53;;;19.00;99.90;;;;;;4991811;28;20065;-67
2022/05/14 11:07:06;;;;;;;16.50;4.25;;;19.10;99.90;;;;;;5009302;28;20043;-65
2022/05/14 11:09:45;;;;;;;17.10;4.13;;;19.30;99.90;;;;;;5009023;28;20046;-65
2022/05/14 11:12:19;;;;;;;18.73;3.90;;;19.30;99.90;;;;;;5009154;28;20280;-65
2022/05/14 11:14:48;;;;;;;19.58;4.07;;;19.20;99.90;;;;;;5007822;28;20053;-66
2022/05/14 11:17:23;;;;;;;21.02;3.75;;;19.10;99.90;;;;;;4992006;28;20042;-64
2022/05/14 11:19:53;;;;;;;16.23;4.00;;;19.30;99.90;;;;;;4990792;28;20053;-65
2022/05/14 11:22:30;;;;;;;21.42;3.53;;;19.20;99.90;;;;;;4972645;28;20042;-65
2022/05/14 11:24:57;;;;;;;24.48;4.35;;;19.00;99.90;;;;;;4990241;28;20058;-65
2022/05/14 11:27:29;;;;;;;19.80;4.53;;;19.30;99.90;;;;;;4989099;28;20133;-65
2022/05/14 11:30:00;;;;;;;19.55;4.20;;;19.20;99.90;;;;;;4988201;28;20053;-64
2022/05/14 11:32:32;;;;;;;22.00;4.22;;;19.30;99.90;;;;;;5009643;28;20156;-65
2022/05/14 11:35:01;;;;;;;23.95;4.88;;;19.20;99.90;;;;;;4991351;28;20050;-64
2022/05/14 11:37:33;;;;;;;21.95;4.07;;;19.40;99.90;;;;;;5011048;28;20034;-64
2022/05/14 11:40:11;;;;;;;18.05;4.80;;;19.30;99.90;;;;;;5003839;28;20100;-64
2022/05/14 11:42:37;;;;;;;16.52;4.38;;;19.10;99.90;;;;;;4990651;28;20049;-64
2022/05/14 11:45:11;;;;;;;25.38;6.10;;;19.30;99.90;;;;;;4994779;28;20050;-65
2022/05/14 11:47:42;;;;;;;16.48;3.63;;;19.50;99.90;;;;;;4996224;28;20581;-64
2022/05/14 11:50:10;;;;;;;20.55;4.57;;;19.50;99.90;;;;;;5011909;28;20126;-64
2022/05/14 11:53:08;;;;;;;25.00;4.03;;;19.40;99.90;;;;;;5013615;28;20037;-63
2022/05/14 11:55:57;;;;;;;19.65;3.88;;;19.50;99.90;;;;;;4996043;28;20050;-63
2022/05/14 11:58:30;;;;;;;15.40;4.38;;;19.30;99.90;;;;;;4996014;28;20514;-65
2022/05/14 12:00:58;;;;;;;19.15;4.05;;;19.50;99.90;;;;;;4988133;28;20121;-64
2022/05/14 12:03:37;;;;;;;21.98;3.95;;;19.70;99.90;;;;;;4993685;28;20053;-64
2022/05/14 12:06:34;;;;;;;17.48;3.85;;;19.80;99.90;;;;;;5007096;28;20033;-64
2022/05/14 12:09:24;;;;;;;20.75;4.00;;;19.90;99.90;;;;;;4980139;28;20057;-64
2022/05/14 12:12:09;;;;;;;19.20;4.15;;;19.90;99.90;;;;;;4993611;28;20054;-68
2022/05/14 12:14:36;;;;;;;11.87;3.43;;;20.20;99.90;;;;;;5013287;28;20428;-63
2022/05/14 12:17:05;;;;;;;27.83;4.45;;;19.90;99.90;;;;;;4995627;28;20291;-64
2022/05/14 12:19:38;;;;;;;17.85;4.95;;;19.90;99.90;;;;;;5013572;28;20045;-64
2022/05/14 12:22:06;;;;;;;18.42;3.78;;;20.00;99.90;;;;;;4995510;28;20041;-65
2022/05/14 12:24:35;;;;;;;22.92;4.13;;;20.20;99.90;;;;;;5012946;28;20517;-64
2022/05/14 12:27:02;;;;;;;19.48;4.82;;;20.20;99.90;;;;;;4994504;28;20132;-65
2022/05/14 12:29:33;;;;;;;26.65;6.70;;;19.90;99.90;;;;;;5010579;28;20100;-64
2022/05/14 12:34:46;;;;;;;23.20;4.93;;;20.20;99.90;;;;;;4988811;28;20046;-65
2022/05/14 12:37:26;;;;;;;18.88;4.72;;;20.10;99.90;;;;;;4978289;28;20050;-66
2022/05/14 12:39:55;;;;;;;15.80;4.32;;;20.20;99.90;;;;;;4977128;28;20042;-66
2022/05/14 12:42:30;;;;;;;22.90;5.13;;;20.20;99.90;;;;;;4999048;28;20884;-62
2022/05/14 12:44:57;;;;;;;17.88;3.70;;;20.40;99.90;;;;;;5003831;28;20527;-63
2022/05/14 12:47:27;;;;;;;22.70;4.70;;;20.60;99.90;;;;;;4985575;28;20046;-65
2022/05/14 12:49:53;;;;;;;12.02;3.38;;;20.20;99.90;;;;;;5004117;28;20045;-66
2022/05/14 12:52:22;;;;;;;16.90;4.57;;;20.40;99.90;;;;;;5002301;28;20042;-69
2022/05/14 12:54:49;;;;;;;16.77;4.28;;;20.50;99.90;;;;;;4985894;28;20553;-68
2022/05/14 12:57:15;;;;;;;13.38;3.42;;;20.70;99.90;;;;;;5001726;28;20052;-65
2022/05/14 12:59:41;;;;;;;19.73;4.13;;;20.60;99.90;;;;;;5003452;28;20138;-66
2022/05/14 13:02:14;;;;;;;21.02;3.97;;;20.60;99.90;;;;;;5003097;28;20042;-66
2022/05/14 13:04:50;;;;;;;13.23;3.58;;;20.80;99.90;;;;;;5003132;28;20050;-70
2022/05/14 13:07:16;;;;;;;17.27;3.45;;;20.90;99.90;;;;;;4985628;28;20132;-65
2022/05/14 13:09:42;;;;;;;17.70;4.32;;;20.90;99.90;;;;;;4995547;28;20527;-67
2022/05/14 13:12:15;;;;;;;18.98;3.67;;;20.90;99.90;;;;;;4986416;28;20066;-67
2022/05/14 13:14:57;;;;;;;14.27;3.75;;;21.20;99.90;;;;;;4999708;28;20069;-66
2022/05/14 13:17:35;;;;;;;19.85;4.43;;;21.00;99.90;;;;;;4984513;28;20649;-65
2022/05/14 13:20:02;;;;;;;22.27;4.28;;;21.00;99.90;;;;;;5000770;28;20034;-69